createdAt,value
2023-05-14T00:03:17.088Z,93.21
2023-05-14T00:07:21.249Z,92.81
2023-05-14T00:11:24.113Z,90.66
2023-05-14T00:15:27.201Z,91.60
2023-05-14T00:19:29.997Z,93.46
2023-05-14T00:23:32.754Z,93.84
2023-05-14T00:27:37.653Z,94.33
2023-05-14T00:31:43.787Z,94.75
2023-05-14T00:35:46.690Z,95.99
2023-05-14T00:40:13.101Z,96.25
2023-05-14T00:44:15.895Z,96.38
2023-05-14T00:48:20.033Z,96.22
2023-05-14T00:52:22.835Z,96.03
2023-05-14T00:56:27.562Z,95.52
2023-05-14T01:00:30.320Z,95.54
2023-05-14T01:04:35.088Z,95.26
2023-05-14T01:09:02.061Z,95.01
2023-05-14T01:13:58.992Z,94.10
2023-05-14T01:18:13.940Z,92.39
2023-05-14T01:22:16.840Z,92.43
2023-05-14T01:26:20.948Z,92.47
2023-05-14T01:30:33.132Z,93.68
2023-05-14T01:34:37.822Z,94.54
2023-05-14T01:38:45.667Z,94.61
2023-05-14T01:43:49.121Z,95.64
2023-05-14T01:47:52.563Z,97.69
2023-05-14T01:51:58.646Z,97.92
2023-05-14T01:56:01.766Z,98.72
2023-05-14T02:00:05.258Z,98.85
2023-05-14T02:05:01.480Z,98.59
2023-05-14T02:09:05.472Z,98.49
2023-05-14T02:13:09.625Z,97.88
2023-05-14T02:17:15.862Z,97.40
2023-05-14T02:21:18.583Z,97.11
2023-05-14T02:25:21.301Z,95.78
2023-05-14T02:29:26.300Z,95.84
2023-05-14T02:33:29.097Z,96.56
2023-05-14T02:37:31.802Z,97.71
2023-05-14T02:41:34.645Z,98.48
2023-05-14T02:45:37.536Z,98.60
2023-05-14T02:49:40.405Z,98.50
2023-05-14T02:53:43.222Z,98.46
2023-05-14T02:57:46.724Z,97.82
2023-05-14T03:02:39.693Z,97.59
2023-05-14T03:06:43.145Z,95.85
2023-05-14T03:10:50.143Z,94.58
2023-05-14T03:14:52.928Z,94.09
2023-05-14T03:18:55.812Z,93.67
2023-05-14T03:46:18.861Z,95.63
2023-05-14T03:50:25.799Z,96.15
2023-05-14T03:54:28.789Z,96.89
2023-05-14T03:58:31.529Z,98.71
2023-05-14T04:02:34.417Z,99.29
2023-05-14T04:06:37.336Z,100.00
2023-05-14T04:10:40.182Z,99.44
2023-05-14T04:14:42.974Z,94.56
2023-05-14T04:18:46.082Z,92.98
2023-05-14T04:22:48.922Z,89.90
2023-05-14T04:26:51.675Z,85.90
2023-05-14T04:30:54.595Z,82.38
2023-05-14T04:34:57.380Z,80.44
2023-05-14T04:39:00.076Z,75.80
2023-05-14T04:43:03.088Z,71.39
2023-05-14T04:47:06.964Z,69.73
2023-05-14T04:51:10.138Z,68.93
2023-05-14T04:55:12.889Z,68.11
2023-05-14T04:59:19.340Z,64.55
2023-05-14T05:03:22.205Z,63.73
2023-05-14T05:08:19.318Z,62.10
2023-05-14T05:17:53.595Z,58.45
2023-05-14T05:21:56.465Z,58.70
2023-05-14T05:25:59.148Z,60.67
2023-05-14T05:30:02.372Z,64.50
2023-05-14T05:35:03.531Z,69.11
2023-05-14T05:39:06.265Z,70.63
2023-05-14T05:43:08.950Z,71.67
2023-05-14T05:47:11.701Z,70.87
2023-05-14T05:51:14.729Z,71.97
2023-05-14T05:55:17.599Z,72.66
2023-05-14T05:59:20.334Z,73.17
2023-05-14T07:30:22.908Z,74.20
2023-05-14T07:34:43.764Z,71.33
2023-05-14T07:38:46.539Z,71.27
2023-05-14T07:43:18.988Z,71.70
2023-05-14T07:47:20.520Z,69.62
2023-05-14T07:51:30.003Z,67.80
2023-05-14T07:55:31.389Z,64.37
2023-05-14T07:59:32.967Z,62.63
2023-05-14T08:03:36.339Z,62.30
2023-05-14T08:07:38.016Z,62.47
2023-05-14T08:11:39.464Z,60.60
2023-05-14T08:15:41.213Z,59.72
2023-05-14T08:19:43.010Z,59.68
2023-05-14T08:23:46.142Z,58.39
2023-05-14T08:27:47.732Z,57.65
2023-05-14T08:32:40.146Z,57.23
2023-05-14T08:36:41.903Z,56.95
2023-05-14T08:40:54.758Z,56.99
2023-05-14T08:45:07.889Z,59.18
2023-05-14T08:49:52.018Z,57.97
2023-05-14T08:53:53.469Z,56.71
2023-05-14T08:57:56.262Z,59.22
2023-05-14T09:02:04.687Z,58.02
2023-05-14T09:06:10.654Z,58.11
2023-05-14T09:10:12.382Z,58.81
2023-05-14T09:14:16.851Z,55.93
2023-05-14T09:18:18.514Z,57.00
2023-05-14T09:22:21.820Z,55.23
2023-05-14T09:26:37.872Z,54.11
2023-05-14T09:30:39.422Z,56.19
2023-05-14T09:35:18.815Z,56.22
2023-05-14T09:39:21.993Z,55.20
2023-05-14T09:43:23.381Z,55.84
2023-05-14T09:47:32.933Z,55.40
2023-05-14T09:51:38.404Z,54.98
2023-05-14T09:55:45.268Z,52.44
2023-05-14T09:59:46.980Z,50.72
2023-05-14T10:03:50.478Z,50.77
2023-05-14T10:07:57.655Z,51.84
2023-05-14T10:12:05.531Z,50.86
2023-05-14T10:16:21.425Z,51.13
2023-05-14T10:20:26.310Z,51.04
2023-05-14T10:24:29.885Z,50.76
2023-05-14T10:28:35.383Z,51.09
2023-05-14T10:32:41.279Z,52.21
2023-05-14T10:37:02.359Z,51.84
2023-05-14T10:41:07.510Z,50.65
2023-05-14T10:45:15.392Z,50.84
2023-05-14T10:49:25.777Z,52.30
2023-05-14T10:53:37.650Z,49.71
2023-05-14T10:57:43.004Z,49.96
2023-05-14T11:01:45.729Z,50.07
2023-05-14T11:05:48.709Z,51.22
2023-05-14T11:10:07.797Z,49.76
2023-05-14T11:14:12.652Z,49.39
2023-05-14T11:18:30.139Z,52.09
2023-05-14T11:22:35.705Z,50.72
2023-05-14T11:26:37.865Z,48.42
2023-05-14T11:30:40.542Z,47.74
2023-05-14T11:34:50.297Z,47.48
2023-05-14T11:38:52.687Z,47.33
2023-05-14T11:42:55.445Z,46.94
2023-05-14T11:46:59.211Z,48.76
2023-05-14T11:51:01.362Z,50.56
2023-05-14T11:55:04.257Z,49.73
2023-05-14T12:03:33.330Z,49.19
2023-05-14T12:07:35.483Z,47.60
2023-05-14T12:11:41.546Z,47.90
2023-05-14T12:16:01.901Z,48.41
2023-05-14T12:20:03.678Z,48.76
2023-05-14T12:24:13.521Z,48.36
2023-05-14T12:28:16.410Z,47.26
2023-05-14T12:32:37.224Z,47.02
2023-05-14T12:36:38.627Z,47.06
2023-05-14T12:40:40.071Z,46.08
2023-05-14T12:44:41.929Z,47.45
2023-05-14T12:48:43.266Z,45.05
2023-05-14T12:52:45.849Z,45.65
2023-05-14T12:56:47.283Z,45.79
2023-05-14T13:01:40.099Z,46.08
2023-05-14T13:05:41.588Z,47.83
2023-05-14T13:09:42.976Z,49.08
2023-05-14T13:13:44.354Z,48.62
2023-05-14T13:17:45.748Z,46.54
2023-05-14T13:21:47.680Z,46.46
2023-05-14T13:25:50.015Z,46.67
2023-05-14T13:29:52.141Z,47.50
2023-05-14T13:33:53.505Z,45.45
2023-05-14T13:37:55.742Z,44.47
2023-05-14T13:41:57.439Z,43.43
2023-05-14T13:45:59.193Z,45.26
2023-05-14T13:50:07.353Z,46.22
2023-05-14T13:54:08.853Z,47.25
2023-05-14T13:58:10.430Z,47.12
2023-05-14T14:40:49.350Z,46.45
2023-05-14T14:44:50.961Z,47.46
2023-05-14T14:48:52.321Z,46.29
2023-05-14T14:52:54.159Z,45.98
2023-05-14T14:57:24.161Z,44.72
2023-05-14T15:01:33.274Z,45.05
2023-05-14T15:05:34.834Z,45.64
2023-05-14T15:09:36.245Z,47.04
2023-05-14T15:13:39.465Z,47.05
2023-05-14T15:18:31.021Z,47.57
2023-05-14T15:22:32.816Z,47.37
2023-05-14T15:26:34.229Z,48.68
2023-05-14T15:31:01.933Z,47.51
2023-05-14T15:35:03.603Z,48.04
2023-05-14T15:39:10.786Z,47.78
2023-05-14T15:43:12.147Z,48.47
2023-05-14T15:47:14.924Z,48.98
2023-05-14T15:51:16.252Z,48.96
2023-05-14T15:55:21.884Z,48.92
2023-05-14T15:59:23.927Z,48.54
2023-05-14T16:03:25.416Z,47.57
2023-05-14T16:07:27.087Z,47.34
2023-05-14T16:11:29.579Z,47.73
2023-05-14T16:15:43.783Z,49.47
2023-05-14T16:19:45.159Z,48.87
2023-05-14T16:23:46.534Z,49.27
2023-05-14T16:27:48.223Z,50.36
2023-05-14T16:32:05.106Z,52.98
2023-05-14T16:36:06.656Z,56.01
2023-05-14T16:40:11.697Z,57.49
2023-05-14T16:45:15.037Z,59.21
2023-05-14T16:49:16.529Z,60.84
2023-05-14T17:02:50.090Z,65.59
2023-05-14T17:11:44.973Z,66.62
2023-05-14T17:15:46.090Z,68.16
2023-05-14T17:24:06.998Z,70.89
2023-05-14T17:28:08.385Z,71.35
2023-05-14T17:32:09.986Z,71.61
2023-05-14T17:36:20.222Z,72.52
2023-05-14T17:40:21.569Z,73.44
2023-05-14T17:44:22.913Z,74.62
2023-05-14T17:48:24.465Z,75.75
2023-05-14T17:52:31.303Z,76.95
2023-05-14T17:56:32.961Z,77.20
2023-05-14T18:00:34.450Z,77.55
2023-05-14T18:04:35.971Z,78.16
2023-05-14T18:08:39.354Z,78.27
2023-05-14T18:12:41.073Z,78.22
2023-05-14T18:16:42.830Z,78.16
2023-05-14T18:20:44.278Z,78.34
2023-05-14T18:24:45.672Z,78.47
2023-05-14T18:28:47.549Z,78.51
2023-05-14T18:32:49.320Z,77.99
2023-05-14T18:36:50.889Z,78.43
2023-05-14T18:40:57.559Z,79.25
2023-05-14T18:44:58.911Z,79.37
2023-05-14T18:49:00.250Z,79.99
2023-05-14T19:16:33.745Z,84.90
2023-05-14T19:21:00.648Z,84.05
2023-05-14T19:25:02.188Z,84.01
2023-05-14T19:29:03.916Z,83.35
2023-05-14T19:33:05.393Z,83.94
2023-05-14T19:37:06.949Z,85.98
2023-05-14T19:41:08.703Z,87.74
2023-05-14T19:45:10.927Z,87.36
2023-05-14T19:49:12.386Z,87.59
2023-05-14T19:53:13.936Z,87.25
2023-05-14T19:57:15.340Z,87.75
2023-05-14T20:01:16.771Z,86.37
2023-05-14T20:05:18.161Z,84.14
2023-05-14T20:09:19.822Z,83.85
2023-05-14T20:13:23.142Z,84.16
2023-05-14T20:17:25.980Z,83.03
2023-05-14T20:21:45.592Z,83.54
2023-05-14T20:25:47.156Z,83.76
2023-05-14T20:29:50.671Z,86.88
2023-05-14T20:33:57.167Z,90.35
2023-05-14T20:37:58.916Z,91.37
2023-05-14T20:42:06.517Z,92.08
2023-05-14T20:46:08.531Z,94.17
2023-05-14T20:50:39.189Z,94.07
2023-05-14T20:54:41.365Z,95.40
2023-05-14T20:59:42.941Z,95.46
2023-05-14T21:03:44.581Z,98.09
2023-05-14T21:07:57.399Z,97.88
2023-05-14T21:11:59.317Z,99.67
2023-05-14T21:16:01.459Z,99.58
2023-05-14T21:20:03.745Z,100.00
2023-05-14T21:24:07.067Z,100.00
2023-05-14T21:28:09.002Z,100.00
2023-05-14T21:32:10.814Z,100.00
2023-05-14T21:36:12.982Z,100.00
2023-05-14T21:40:15.799Z,100.00
2023-05-14T21:44:17.727Z,100.00
2023-05-14T21:48:20.084Z,100.00
2023-05-14T21:52:21.932Z,100.00
2023-05-14T21:56:23.983Z,100.00
2023-05-14T22:00:26.180Z,100.00
2023-05-14T22:04:28.488Z,100.00
2023-05-14T22:08:30.690Z,100.00
2023-05-14T22:12:36.328Z,100.00
2023-05-14T22:16:38.632Z,100.00
2023-05-14T22:20:42.168Z,100.00
2023-05-14T22:24:43.985Z,100.00
2023-05-14T22:28:45.836Z,100.00
2023-05-14T22:32:47.834Z,100.00
2023-05-14T22:36:49.784Z,100.00
2023-05-14T22:40:51.718Z,100.00
2023-05-14T22:44:53.596Z,100.00
2023-05-14T22:48:55.362Z,100.00
2023-05-14T22:52:57.230Z,100.00
2023-05-14T22:56:59.164Z,100.00
2023-05-14T23:01:00.973Z,100.00
2023-05-14T23:05:02.896Z,100.00
2023-05-14T23:09:04.688Z,100.00
2023-05-14T23:13:06.525Z,100.00
2023-05-14T23:17:08.518Z,100.00
2023-05-14T23:21:12.122Z,100.00
2023-05-14T23:25:14.103Z,100.00
2023-05-14T23:29:16.127Z,100.00
2023-05-14T23:33:18.453Z,100.00
2023-05-14T23:37:20.319Z,100.00
2023-05-14T23:41:22.261Z,100.00
2023-05-14T23:45:24.643Z,100.00
2023-05-14T23:49:26.803Z,100.00
2023-05-14T23:53:28.601Z,100.00
2023-05-14T23:57:30.709Z,100.00
